createdAt,value
2016-12-14T00:00:25.301Z,0
2016-12-14T00:01:05.749Z,0
2016-12-14T00:01:46.242Z,0
2016-12-14T00:02:26.731Z,0
2016-12-14T00:03:07.188Z,0
2016-12-14T00:03:47.662Z,0
2016-12-14T00:04:28.135Z,0
2016-12-14T00:05:08.666Z,0
2016-12-14T00:05:49.123Z,0
2016-12-14T00:06:29.586Z,0
2016-12-14T00:07:10.072Z,0
2016-12-14T00:07:50.534Z,0
2016-12-14T00:08:31.010Z,0
2016-12-14T00:09:11.476Z,0
2016-12-14T00:09:51.973Z,0
2016-12-14T00:10:32.481Z,0
2016-12-14T00:11:12.950Z,0
2016-12-14T00:11:53.510Z,0
2016-12-14T00:12:33.996Z,0
2016-12-14T00:13:14.445Z,0
2016-12-14T00:13:54.962Z,0
2016-12-14T00:14:35.389Z,0
2016-12-14T00:15:15.906Z,0
2016-12-14T00:15:56.360Z,0
2016-12-14T00:16:36.837Z,0
2016-12-14T00:17:17.363Z,0
2016-12-14T00:17:57.858Z,0
2016-12-14T00:18:38.321Z,0
2016-12-14T00:19:18.812Z,0
2016-12-14T00:19:59.311Z,0
2016-12-14T00:20:39.764Z,0
2016-12-14T00:21:20.254Z,0
2016-12-14T00:22:00.753Z,0
2016-12-14T00:22:41.203Z,0
2016-12-14T00:23:21.737Z,0
2016-12-14T00:24:02.203Z,0
2016-12-14T00:24:42.702Z,0
2016-12-14T00:25:23.145Z,0
2016-12-14T00:26:03.631Z,0
2016-12-14T00:26:44.107Z,0
2016-12-14T00:27:24.581Z,0
2016-12-14T00:28:05.051Z,0
2016-12-14T00:28:45.559Z,0
2016-12-14T00:29:26.008Z,0
2016-12-14T00:30:06.492Z,0
2016-12-14T00:30:47.006Z,0
2016-12-14T00:31:27.539Z,0
2016-12-14T00:32:08.003Z,0
2016-12-14T00:32:48.473Z,0
2016-12-14T00:33:28.971Z,0
2016-12-14T00:34:09.442Z,0
2016-12-14T00:34:49.889Z,0
2016-12-14T00:35:30.336Z,0
2016-12-14T00:36:10.823Z,0
2016-12-14T00:36:51.314Z,0
2016-12-14T00:37:31.765Z,0
2016-12-14T00:38:12.251Z,0
2016-12-14T00:38:52.719Z,0
2016-12-14T00:39:33.208Z,0
2016-12-14T00:40:13.707Z,0
2016-12-14T00:40:54.173Z,0
2016-12-14T00:41:34.629Z,0
2016-12-14T00:42:15.090Z,0
2016-12-14T00:42:55.561Z,0
2016-12-14T00:43:36.065Z,0
2016-12-14T00:44:16.541Z,0
2016-12-14T00:44:56.996Z,0
2016-12-14T00:45:37.496Z,0
2016-12-14T00:46:17.974Z,0
2016-12-14T00:46:58.458Z,0
2016-12-14T00:47:38.934Z,0
2016-12-14T00:48:19.414Z,0
2016-12-14T00:48:59.925Z,0
2016-12-14T00:49:40.374Z,0
2016-12-14T00:50:20.836Z,0
2016-12-14T00:51:01.342Z,0
2016-12-14T00:51:41.807Z,0
2016-12-14T00:52:22.263Z,0
2016-12-14T00:53:02.748Z,0
2016-12-14T00:53:43.209Z,0
2016-12-14T00:54:23.690Z,0
2016-12-14T00:55:04.165Z,0
2016-12-14T00:55:44.646Z,0
2016-12-14T00:56:25.110Z,0
2016-12-14T00:57:05.627Z,0
2016-12-14T00:57:46.112Z,0
2016-12-14T00:58:26.626Z,0
2016-12-14T00:59:07.074Z,0
2016-12-14T00:59:47.534Z,0
2016-12-14T01:00:27.999Z,0
2016-12-14T01:01:08.505Z,0
2016-12-14T01:01:48.952Z,0
2016-12-14T01:02:29.421Z,0
2016-12-14T01:03:09.931Z,0
2016-12-14T01:03:50.370Z,0
2016-12-14T01:04:30.804Z,0
2016-12-14T01:05:11.287Z,0
2016-12-14T01:05:51.756Z,0
2016-12-14T01:06:32.202Z,0
2016-12-14T01:07:12.670Z,0
2016-12-14T01:07:53.094Z,0
2016-12-14T01:08:33.551Z,0
2016-12-14T01:09:14.012Z,0
2016-12-14T01:09:54.481Z,0
2016-12-14T01:10:34.941Z,0
2016-12-14T01:11:15.418Z,0
2016-12-14T01:11:55.875Z,0
2016-12-14T01:12:36.380Z,0
2016-12-14T01:13:16.797Z,0
2016-12-14T01:13:57.309Z,0
2016-12-14T01:14:37.803Z,0
2016-12-14T01:15:18.314Z,0
2016-12-14T01:15:58.795Z,0
2016-12-14T01:16:39.263Z,0
2016-12-14T01:17:19.711Z,0
2016-12-14T01:18:00.167Z,0
2016-12-14T01:18:40.619Z,0
2016-12-14T01:19:23.015Z,0
2016-12-14T01:20:03.499Z,0
2016-12-14T01:20:43.976Z,0
2016-12-14T01:21:24.428Z,0
2016-12-14T01:22:04.922Z,0
2016-12-14T01:22:45.423Z,0
2016-12-14T01:23:25.951Z,0
2016-12-14T01:24:06.430Z,0
2016-12-14T01:24:46.886Z,0
2016-12-14T01:25:27.363Z,0
2016-12-14T01:26:07.841Z,0
2016-12-14T01:26:48.312Z,0
2016-12-14T01:27:28.852Z,0
2016-12-14T01:28:09.312Z,0
2016-12-14T01:28:49.801Z,0
2016-12-14T01:29:30.298Z,0
2016-12-14T01:30:10.746Z,0
2016-12-14T01:30:51.232Z,0
2016-12-14T01:31:31.688Z,0
2016-12-14T01:32:12.198Z,0
2016-12-14T01:32:52.652Z,0
2016-12-14T01:33:33.138Z,0
2016-12-14T01:34:13.607Z,0
2016-12-14T01:34:54.107Z,0
2016-12-14T01:35:34.565Z,0
2016-12-14T01:36:15.011Z,0
2016-12-14T01:36:55.563Z,0
2016-12-14T01:37:36.042Z,0
2016-12-14T01:38:16.544Z,0
2016-12-14T01:38:57.085Z,0
2016-12-14T01:39:37.521Z,0
2016-12-14T01:40:18.006Z,0
2016-12-14T01:40:58.569Z,0
2016-12-14T01:41:39.056Z,0
2016-12-14T01:42:19.528Z,0
2016-12-14T01:43:00.026Z,0
2016-12-14T01:43:40.467Z,0
2016-12-14T01:44:20.924Z,0
2016-12-14T01:45:01.366Z,0
2016-12-14T01:45:41.856Z,0
2016-12-14T01:46:22.321Z,0
2016-12-14T01:47:02.808Z,0
2016-12-14T01:47:43.277Z,0
2016-12-14T01:48:23.720Z,0
2016-12-14T01:49:04.217Z,0
2016-12-14T01:49:44.657Z,0
2016-12-14T01:50:25.128Z,0
2016-12-14T01:51:05.830Z,0
2016-12-14T01:51:46.296Z,0
2016-12-14T01:52:26.743Z,0
2016-12-14T01:53:07.213Z,0
2016-12-14T01:53:47.683Z,0
2016-12-14T01:54:28.163Z,0
2016-12-14T01:55:08.646Z,0
2016-12-14T01:55:49.111Z,0
2016-12-14T01:56:29.576Z,0
2016-12-14T01:57:10.048Z,0
2016-12-14T01:57:50.532Z,0
2016-12-14T01:58:31.004Z,0
2016-12-14T01:59:11.489Z,0
2016-12-14T01:59:51.941Z,0
2016-12-14T02:00:32.451Z,0
2016-12-14T02:01:12.884Z,0
2016-12-14T02:01:53.401Z,0
2016-12-14T02:02:33.834Z,0
2016-12-14T02:03:14.287Z,0
2016-12-14T02:03:54.756Z,0
2016-12-14T02:04:35.222Z,0
2016-12-14T02:05:15.689Z,0
2016-12-14T02:05:56.163Z,0
2016-12-14T02:06:36.640Z,0
2016-12-14T02:07:17.103Z,0
2016-12-14T02:07:57.568Z,0
2016-12-14T02:08:38.049Z,0
2016-12-14T02:10:43.116Z,0
2016-12-14T02:11:32.051Z,0
2016-12-14T02:12:20.343Z,0
2016-12-14T02:13:08.018Z,0
2016-12-14T02:15:54.513Z,0
2016-12-14T02:16:42.909Z,0
2016-12-14T02:17:27.832Z,0
2016-12-14T02:18:15.653Z,0
2016-12-14T02:18:57.214Z,0
2016-12-14T02:19:37.699Z,0
2016-12-14T02:20:18.161Z,0
2016-12-14T02:20:58.639Z,0
2016-12-14T02:21:39.078Z,0
2016-12-14T02:22:19.563Z,0
2016-12-14T02:23:00.026Z,0
2016-12-14T02:23:40.494Z,0
2016-12-14T02:24:20.979Z,0
2016-12-14T02:25:01.470Z,0
2016-12-14T02:25:41.946Z,0
2016-12-14T02:26:22.443Z,0
2016-12-14T02:27:02.874Z,0
2016-12-14T02:27:43.370Z,0
2016-12-14T02:28:23.811Z,0
2016-12-14T02:29:04.305Z,0
2016-12-14T02:29:44.819Z,0
2016-12-14T02:30:25.304Z,0
2016-12-14T02:31:05.832Z,0
2016-12-14T02:31:46.333Z,0
2016-12-14T02:32:26.803Z,0
2016-12-14T02:33:07.288Z,0
2016-12-14T02:33:47.746Z,0
2016-12-14T02:34:28.213Z,0
2016-12-14T02:35:08.715Z,0
2016-12-14T02:35:49.175Z,0
2016-12-14T02:36:29.674Z,0
2016-12-14T02:37:10.100Z,0
2016-12-14T02:37:50.568Z,0
2016-12-14T02:38:31.053Z,0
2016-12-14T02:39:11.549Z,0
2016-12-14T02:39:52.000Z,0
2016-12-14T02:40:32.470Z,0
2016-12-14T02:41:12.991Z,0
2016-12-14T02:41:53.481Z,0
2016-12-14T02:42:34.000Z,0
2016-12-14T02:43:14.467Z,0
2016-12-14T02:43:54.895Z,0
2016-12-14T02:44:35.395Z,0
2016-12-14T02:45:15.872Z,0
2016-12-14T02:45:56.349Z,0
2016-12-14T02:46:36.801Z,0
2016-12-14T02:47:17.282Z,0
2016-12-14T02:47:57.751Z,0
2016-12-14T02:48:38.230Z,0
2016-12-14T02:49:18.702Z,0
2016-12-14T02:49:59.164Z,0
2016-12-14T02:50:39.641Z,0
2016-12-14T02:51:20.100Z,0
2016-12-14T02:52:00.577Z,0
2016-12-14T02:52:41.022Z,0
2016-12-14T02:53:21.489Z,0
2016-12-14T02:54:01.939Z,0
2016-12-14T02:54:42.408Z,0
2016-12-14T02:55:22.918Z,0
2016-12-14T02:56:03.378Z,0
2016-12-14T02:56:43.872Z,0
2016-12-14T02:57:24.359Z,0
2016-12-14T02:58:04.790Z,0
2016-12-14T02:58:45.284Z,0
2016-12-14T02:59:25.738Z,0
2016-12-14T03:00:06.201Z,0
2016-12-14T03:00:46.695Z,0
2016-12-14T03:01:27.167Z,0
2016-12-14T03:02:07.609Z,0
2016-12-14T03:02:48.110Z,0
2016-12-14T03:03:28.710Z,0
2016-12-14T03:04:09.146Z,0
2016-12-14T03:04:49.597Z,0
2016-12-14T03:05:30.123Z,0
2016-12-14T03:06:10.570Z,0
2016-12-14T03:06:51.091Z,0
2016-12-14T03:07:31.508Z,0
2016-12-14T03:08:11.959Z,0
2016-12-14T03:08:52.492Z,0
2016-12-14T03:09:32.908Z,0
2016-12-14T03:10:13.374Z,0
2016-12-14T03:10:53.828Z,0
2016-12-14T03:11:34.290Z,0
2016-12-14T03:12:14.761Z,0
2016-12-14T03:12:55.260Z,0
2016-12-14T03:13:35.704Z,0
2016-12-14T03:14:16.245Z,0
2016-12-14T03:14:56.670Z,0
2016-12-14T03:15:37.137Z,0
2016-12-14T03:16:17.625Z,0
2016-12-14T03:16:58.095Z,0
2016-12-14T03:17:38.559Z,0
2016-12-14T03:18:19.015Z,0
2016-12-14T03:18:59.503Z,0
2016-12-14T03:19:39.956Z,0
2016-12-14T03:20:20.401Z,0
2016-12-14T03:21:00.900Z,0
2016-12-14T03:21:41.373Z,0
2016-12-14T03:22:21.841Z,0
2016-12-14T03:23:02.313Z,0
2016-12-14T03:23:42.745Z,0
2016-12-14T03:24:23.207Z,0
2016-12-14T03:25:03.685Z,0
2016-12-14T03:25:44.181Z,0
2016-12-14T03:26:24.641Z,0
2016-12-14T03:27:05.135Z,0
2016-12-14T03:27:45.573Z,0
2016-12-14T03:28:26.045Z,0
2016-12-14T03:29:06.548Z,0
2016-12-14T03:29:46.991Z,0
2016-12-14T03:30:27.451Z,0
2016-12-14T03:31:07.930Z,0
2016-12-14T03:31:48.428Z,0
2016-12-14T03:32:28.913Z,0
2016-12-14T03:33:09.391Z,0
2016-12-14T03:33:49.839Z,0
2016-12-14T03:34:30.326Z,0
2016-12-14T03:35:10.843Z,0
2016-12-14T03:35:51.302Z,0
2016-12-14T03:36:31.760Z,0
2016-12-14T03:37:12.234Z,0
2016-12-14T03:37:52.692Z,0
2016-12-14T03:38:33.144Z,0
2016-12-14T03:39:13.665Z,0
2016-12-14T03:39:54.129Z,0
2016-12-14T03:40:34.624Z,0
2016-12-14T03:41:15.090Z,0
2016-12-14T03:41:55.539Z,0
2016-12-14T03:42:36.020Z,0
2016-12-14T03:43:16.499Z,0
2016-12-14T03:43:56.927Z,0
2016-12-14T03:44:37.410Z,0
2016-12-14T03:45:17.862Z,0
2016-12-14T03:45:58.365Z,0
2016-12-14T03:46:38.835Z,0
2016-12-14T03:47:19.332Z,0
2016-12-14T03:47:59.786Z,0
2016-12-14T03:48:40.249Z,0
2016-12-14T03:49:20.738Z,0
2016-12-14T03:50:01.190Z,0
2016-12-14T03:50:41.701Z,0
2016-12-14T03:51:22.174Z,0
2016-12-14T03:52:02.625Z,0
2016-12-14T03:52:43.109Z,0
2016-12-14T03:53:23.660Z,0
2016-12-14T03:54:04.133Z,0
2016-12-14T03:54:44.579Z,0
2016-12-14T03:55:25.025Z,0
2016-12-14T03:56:05.500Z,0
2016-12-14T03:56:45.939Z,0
2016-12-14T03:57:26.430Z,0
2016-12-14T03:58:06.873Z,0
2016-12-14T03:58:47.332Z,0
2016-12-14T03:59:27.787Z,0
2016-12-14T04:00:08.276Z,0
2016-12-14T04:00:48.729Z,0
2016-12-14T04:01:29.222Z,0
2016-12-14T04:02:09.644Z,0
2016-12-14T04:02:50.094Z,0
2016-12-14T04:03:30.566Z,0
2016-12-14T04:04:11.018Z,0
2016-12-14T04:04:51.487Z,0
2016-12-14T04:05:31.963Z,0
2016-12-14T04:06:12.434Z,0
2016-12-14T04:06:52.916Z,0
2016-12-14T04:07:33.355Z,0
2016-12-14T04:08:13.833Z,0
2016-12-14T04:08:54.304Z,0
2016-12-14T04:09:34.767Z,0
2016-12-14T04:10:15.234Z,0
2016-12-14T04:10:55.889Z,0
2016-12-14T04:11:36.395Z,0
2016-12-14T04:12:16.838Z,0
2016-12-14T04:12:57.332Z,0
2016-12-14T04:13:37.788Z,0
2016-12-14T04:14:18.249Z,0
2016-12-14T04:14:58.758Z,0
2016-12-14T04:15:39.197Z,0
2016-12-14T04:16:19.686Z,0
2016-12-14T04:17:00.154Z,0
2016-12-14T04:17:40.587Z,0
2016-12-14T04:18:21.099Z,0
2016-12-14T04:19:01.556Z,0
2016-12-14T04:19:41.999Z,0
2016-12-14T04:20:22.473Z,0
2016-12-14T04:21:02.925Z,0
2016-12-14T04:21:43.416Z,0
2016-12-14T04:22:23.910Z,0
2016-12-14T04:23:04.374Z,0
2016-12-14T04:23:44.869Z,0
2016-12-14T04:24:25.344Z,0
2016-12-14T04:25:05.810Z,0
2016-12-14T04:25:46.239Z,0
2016-12-14T04:26:26.697Z,0
2016-12-14T04:27:07.176Z,0
2016-12-14T04:27:47.641Z,0
2016-12-14T04:28:28.122Z,0
2016-12-14T04:29:08.608Z,0
2016-12-14T04:29:49.072Z,0
2016-12-14T04:30:29.504Z,0
2016-12-14T04:31:09.960Z,0
2016-12-14T04:31:50.426Z,0
2016-12-14T04:32:30.884Z,0
2016-12-14T04:33:11.385Z,0
2016-12-14T04:33:51.842Z,0
2016-12-14T04:34:32.321Z,0
2016-12-14T04:35:12.794Z,0
2016-12-14T04:35:53.273Z,0
2016-12-14T04:36:33.710Z,0
2016-12-14T04:37:14.209Z,0
2016-12-14T04:37:54.666Z,0
2016-12-14T04:38:35.133Z,0
2016-12-14T04:39:15.611Z,0
2016-12-14T04:39:56.104Z,0
2016-12-14T04:40:36.516Z,0
2016-12-14T04:41:17.006Z,0
2016-12-14T04:41:57.461Z,0
2016-12-14T04:42:37.937Z,0
2016-12-14T04:43:18.400Z,0
2016-12-14T04:43:58.890Z,0
2016-12-14T04:44:39.307Z,0
2016-12-14T04:45:19.779Z,0
2016-12-14T04:46:00.227Z,0
2016-12-14T04:46:40.685Z,0
2016-12-14T04:47:21.182Z,0
2016-12-14T04:48:01.621Z,0
2016-12-14T04:48:42.082Z,0
2016-12-14T04:49:22.561Z,0
2016-12-14T04:50:03.054Z,0
2016-12-14T04:50:43.510Z,0
2016-12-14T04:51:23.995Z,0
2016-12-14T04:52:04.441Z,0
2016-12-14T04:52:44.888Z,0
2016-12-14T04:53:25.347Z,0
2016-12-14T04:54:05.811Z,0
2016-12-14T04:54:46.290Z,0
2016-12-14T04:55:26.774Z,0
2016-12-14T04:56:07.265Z,0
2016-12-14T04:56:47.719Z,0
2016-12-14T04:57:28.204Z,0
2016-12-14T04:58:08.722Z,0
2016-12-14T04:58:49.192Z,0
2016-12-14T04:59:29.663Z,0
2016-12-14T05:00:10.114Z,0
2016-12-14T05:00:50.778Z,0
2016-12-14T05:01:31.049Z,0
2016-12-14T05:02:11.512Z,0
2016-12-14T05:02:51.967Z,0
2016-12-14T05:03:32.431Z,0
2016-12-14T05:04:12.915Z,0
2016-12-14T05:04:53.378Z,0
2016-12-14T05:05:33.875Z,0
2016-12-14T05:06:14.332Z,0
2016-12-14T05:06:54.811Z,0
2016-12-14T05:07:35.263Z,0
2016-12-14T05:08:15.707Z,0
2016-12-14T05:08:56.206Z,0
2016-12-14T05:09:36.658Z,0
2016-12-14T05:10:17.146Z,0
2016-12-14T05:10:57.579Z,0
2016-12-14T05:11:38.030Z,0
2016-12-14T05:12:18.529Z,0
2016-12-14T05:12:59.059Z,0
2016-12-14T05:13:39.509Z,0
2016-12-14T05:14:19.951Z,0
2016-12-14T05:15:00.408Z,0
2016-12-14T05:15:40.880Z,0
2016-12-14T05:16:21.337Z,0
2016-12-14T05:17:01.840Z,0
2016-12-14T05:17:42.317Z,0
2016-12-14T05:18:22.802Z,0
2016-12-14T05:19:03.932Z,0
2016-12-14T05:19:45.130Z,0
2016-12-14T05:20:25.626Z,0
2016-12-14T05:21:06.116Z,0
2016-12-14T05:21:46.615Z,0
2016-12-14T05:22:27.100Z,0
2016-12-14T05:23:07.586Z,0
2016-12-14T05:23:48.118Z,0
2016-12-14T05:24:28.611Z,0
2016-12-14T05:25:09.085Z,0
2016-12-14T05:25:49.609Z,0
2016-12-14T05:26:30.099Z,0
2016-12-14T05:27:10.593Z,0
2016-12-14T05:27:51.094Z,0
2016-12-14T05:28:31.602Z,0
2016-12-14T05:29:12.102Z,0
2016-12-14T05:29:52.575Z,0
2016-12-14T05:30:33.048Z,0
2016-12-14T05:32:48.699Z,0
2016-12-14T05:33:29.565Z,0
2016-12-14T05:34:10.291Z,0
2016-12-14T05:34:50.837Z,0
2016-12-14T05:35:31.213Z,0
2016-12-14T05:36:11.729Z,0
2016-12-14T05:36:52.201Z,0
2016-12-14T05:37:32.720Z,0
2016-12-14T05:38:13.351Z,0
2016-12-14T05:38:54.721Z,0
2016-12-14T05:39:35.242Z,0
2016-12-14T05:40:15.889Z,0
2016-12-14T05:40:56.337Z,0
2016-12-14T05:41:36.900Z,0
2016-12-14T05:42:17.362Z,0
2016-12-14T05:42:57.858Z,0
2016-12-14T05:43:38.354Z,0
2016-12-14T05:44:18.821Z,0
2016-12-14T05:44:59.366Z,0
2016-12-14T05:45:39.848Z,0
2016-12-14T05:46:20.503Z,0
2016-12-14T05:47:01.008Z,0
2016-12-14T05:47:41.520Z,0
2016-12-14T05:48:22.001Z,0
2016-12-14T05:49:02.529Z,0
2016-12-14T05:49:43.030Z,0
2016-12-14T05:50:23.537Z,0
2016-12-14T05:51:04.031Z,0
2016-12-14T05:51:44.547Z,0
2016-12-14T05:52:25.027Z,0
2016-12-14T05:53:05.501Z,0
2016-12-14T05:53:46.045Z,0
2016-12-14T05:54:26.490Z,0
2016-12-14T05:55:07.129Z,0
2016-12-14T05:55:47.618Z,0
2016-12-14T05:56:28.117Z,0
2016-12-14T05:57:08.619Z,0
2016-12-14T05:57:49.127Z,0
2016-12-14T05:58:29.594Z,0
2016-12-14T05:59:10.077Z,0
2016-12-14T05:59:50.560Z,0
2016-12-14T06:00:31.076Z,0
2016-12-14T06:01:11.555Z,0
2016-12-14T06:01:52.052Z,0
2016-12-14T06:02:32.564Z,0
2016-12-14T06:03:13.712Z,0
2016-12-14T06:03:54.208Z,0
2016-12-14T06:04:34.714Z,0
2016-12-14T06:05:15.185Z,0
2016-12-14T06:05:55.677Z,0
2016-12-14T06:06:36.168Z,0
2016-12-14T06:07:16.678Z,0
2016-12-14T06:07:57.180Z,0
2016-12-14T06:08:38.354Z,0
2016-12-14T06:09:18.826Z,0
2016-12-14T06:09:59.324Z,0
2016-12-14T06:10:39.822Z,0
2016-12-14T06:11:20.319Z,0
2016-12-14T06:12:00.814Z,0
2016-12-14T06:12:41.320Z,0
2016-12-14T06:13:21.783Z,0
2016-12-14T06:14:02.292Z,0
2016-12-14T06:14:42.795Z,0
2016-12-14T06:15:23.273Z,0
2016-12-14T06:16:03.746Z,0
2016-12-14T06:16:44.267Z,0
2016-12-14T06:17:24.770Z,0
2016-12-14T06:18:05.254Z,0
2016-12-14T06:18:45.744Z,0
2016-12-14T06:19:26.379Z,0
2016-12-14T06:20:06.876Z,0
2016-12-14T06:20:47.389Z,0
2016-12-14T06:21:27.895Z,0
2016-12-14T06:22:08.374Z,0
2016-12-14T06:22:48.884Z,0
2016-12-14T06:23:29.374Z,0
2016-12-14T06:24:09.853Z,0
2016-12-14T06:24:50.348Z,0
2016-12-14T06:25:30.823Z,0
2016-12-14T06:26:11.315Z,0
2016-12-14T06:26:51.829Z,0
2016-12-14T06:27:32.321Z,0
2016-12-14T06:28:12.826Z,0
2016-12-14T06:28:53.326Z,0
2016-12-14T06:29:33.838Z,0
2016-12-14T06:30:14.322Z,0
2016-12-14T06:30:54.799Z,0
2016-12-14T06:31:35.309Z,0
2016-12-14T06:32:15.806Z,0
2016-12-14T06:32:56.295Z,0
2016-12-14T06:33:36.807Z,0
2016-12-14T06:34:17.305Z,0
2016-12-14T06:34:57.790Z,0
2016-12-14T06:35:38.270Z,0
2016-12-14T06:36:18.726Z,0
2016-12-14T06:36:59.250Z,0
2016-12-14T06:37:39.762Z,0
2016-12-14T06:38:20.244Z,0
2016-12-14T06:39:00.734Z,0
2016-12-14T06:39:41.210Z,0
2016-12-14T06:40:21.695Z,0
2016-12-14T06:41:02.171Z,0
2016-12-14T06:41:42.659Z,0
2016-12-14T06:42:23.162Z,0
2016-12-14T06:43:03.671Z,0
2016-12-14T06:43:44.170Z,0
2016-12-14T06:44:24.663Z,0
2016-12-14T06:45:05.131Z,0
2016-12-14T06:45:45.619Z,0
2016-12-14T06:46:26.104Z,0
2016-12-14T06:47:06.602Z,0
2016-12-14T06:47:47.091Z,0
2016-12-14T06:48:27.582Z,0
2016-12-14T06:49:08.085Z,0
2016-12-14T06:49:48.565Z,0
2016-12-14T06:50:29.044Z,0
2016-12-14T06:51:09.544Z,0
2016-12-14T06:51:50.035Z,0
2016-12-14T06:52:30.534Z,0
2016-12-14T06:53:11.032Z,0
2016-12-14T06:53:51.513Z,0
2016-12-14T06:54:32.023Z,0
2016-12-14T06:55:12.485Z,0
2016-12-14T06:55:52.993Z,0
2016-12-14T06:56:33.462Z,0
2016-12-14T06:57:14.526Z,0
2016-12-14T06:57:55.005Z,0
2016-12-14T06:58:35.525Z,0
2016-12-14T06:59:16.006Z,0
2016-12-14T06:59:56.490Z,4
2016-12-14T07:00:36.996Z,4
2016-12-14T07:01:17.521Z,4
2016-12-14T07:01:58.020Z,0
2016-12-14T07:02:38.516Z,0
2016-12-14T07:03:19.020Z,4
2016-12-14T07:03:59.521Z,4
2016-12-14T07:04:40.025Z,4
2016-12-14T07:05:20.541Z,0
2016-12-14T07:06:01.023Z,0
2016-12-14T07:06:41.500Z,4
2016-12-14T07:07:21.988Z,4
2016-12-14T07:08:02.518Z,4
2016-12-14T07:08:42.989Z,4
2016-12-14T07:09:23.458Z,4
2016-12-14T07:10:03.958Z,8
2016-12-14T07:10:46.033Z,4
2016-12-14T07:11:26.530Z,8
2016-12-14T07:12:06.994Z,4
2016-12-14T07:12:47.466Z,8
2016-12-14T07:13:27.955Z,8
2016-12-14T07:14:08.442Z,12
2016-12-14T07:14:48.911Z,12
2016-12-14T07:15:29.411Z,12
2016-12-14T07:16:09.939Z,12
2016-12-14T07:16:50.399Z,12
2016-12-14T07:17:30.900Z,16
2016-12-14T07:18:11.414Z,16
2016-12-14T07:18:51.919Z,20
2016-12-14T07:19:32.407Z,20
2016-12-14T07:20:12.896Z,24
2016-12-14T07:20:53.386Z,20
2016-12-14T07:21:33.869Z,24
2016-12-14T07:22:14.345Z,24
2016-12-14T07:22:54.818Z,24
2016-12-14T07:23:35.314Z,28
2016-12-14T07:24:15.808Z,28
2016-12-14T07:24:56.327Z,32
2016-12-14T07:25:36.842Z,36
2016-12-14T07:26:17.288Z,40
2016-12-14T07:26:57.801Z,40
2016-12-14T07:27:38.310Z,40
2016-12-14T07:28:18.752Z,44
2016-12-14T07:28:59.248Z,44
2016-12-14T07:29:39.755Z,48
2016-12-14T07:30:20.243Z,48
2016-12-14T07:31:00.725Z,52
2016-12-14T07:31:41.224Z,56
2016-12-14T07:32:21.733Z,56
2016-12-14T07:33:02.229Z,60
2016-12-14T07:33:44.297Z,64
2016-12-14T07:34:24.776Z,68
2016-12-14T07:35:05.258Z,68
2016-12-14T07:35:45.737Z,72
2016-12-14T07:36:26.239Z,72
2016-12-14T07:37:06.747Z,76
2016-12-14T07:37:47.526Z,76
2016-12-14T07:38:28.028Z,80
2016-12-14T07:39:09.388Z,84
2016-12-14T07:39:50.356Z,88
2016-12-14T07:40:31.262Z,92
2016-12-14T07:41:11.975Z,96
2016-12-14T07:41:53.672Z,100
2016-12-14T07:42:34.682Z,104
2016-12-14T07:43:15.528Z,112
2016-12-14T07:43:56.021Z,116
2016-12-14T07:44:36.514Z,120
2016-12-14T07:45:17.060Z,120
2016-12-14T07:45:57.552Z,124
2016-12-14T07:46:38.100Z,132
2016-12-14T07:47:18.667Z,140
2016-12-14T07:47:59.178Z,148
2016-12-14T07:48:39.939Z,156
2016-12-14T07:49:20.410Z,168
2016-12-14T07:50:00.912Z,176
2016-12-14T07:50:41.412Z,184
2016-12-14T07:51:21.901Z,188
2016-12-14T07:52:02.438Z,192
2016-12-14T07:52:42.936Z,196
2016-12-14T07:53:23.500Z,204
2016-12-14T07:54:03.994Z,216
2016-12-14T07:54:44.477Z,224
2016-12-14T07:55:25.029Z,240
2016-12-14T07:56:05.521Z,256
2016-12-14T07:56:45.993Z,260
2016-12-14T07:57:26.506Z,268
2016-12-14T07:58:06.980Z,268
2016-12-14T07:58:47.499Z,272
2016-12-14T07:59:27.995Z,276
2016-12-14T08:00:08.520Z,284
2016-12-14T08:00:48.967Z,296
2016-12-14T08:01:29.486Z,316
2016-12-14T08:02:09.982Z,332
2016-12-14T08:02:50.515Z,352
2016-12-14T08:03:31.001Z,372
2016-12-14T08:04:11.507Z,384
2016-12-14T08:04:52.049Z,400
2016-12-14T08:05:32.973Z,416
2016-12-14T08:06:14.028Z,432
2016-12-14T08:06:55.235Z,448
2016-12-14T08:07:36.461Z,456
2016-12-14T08:08:17.542Z,472
2016-12-14T08:10:52.425Z,436
2016-12-14T08:11:33.168Z,472
2016-12-14T08:12:13.675Z,484
2016-12-14T08:12:54.233Z,508
2016-12-14T08:13:34.702Z,528
2016-12-14T08:14:15.447Z,552
2016-12-14T08:14:56.001Z,576
2016-12-14T08:15:36.782Z,608
2016-12-14T08:16:17.291Z,636
2016-12-14T08:16:57.802Z,676
2016-12-14T08:17:38.347Z,716
2016-12-14T08:18:19.049Z,760
2016-12-14T08:18:59.559Z,780
2016-12-14T08:19:40.061Z,824
2016-12-14T08:20:20.891Z,852
2016-12-14T08:21:01.401Z,884
2016-12-14T08:21:42.030Z,908
2016-12-14T08:22:22.625Z,916
2016-12-14T08:23:03.167Z,904
2016-12-14T08:23:44.082Z,924
2016-12-14T08:24:24.572Z,904
2016-12-14T08:25:05.092Z,900
2016-12-14T08:25:45.580Z,912
2016-12-14T08:26:26.064Z,936
2016-12-14T08:27:06.554Z,944
2016-12-14T08:27:47.031Z,956
2016-12-14T08:28:27.524Z,1012
2016-12-14T08:29:08.161Z,952
2016-12-14T08:29:48.627Z,924
2016-12-14T08:30:29.102Z,980
2016-12-14T08:31:09.701Z,980
2016-12-14T08:31:50.187Z,936
2016-12-14T08:32:30.679Z,976
2016-12-14T08:33:11.173Z,1020
2016-12-14T08:33:51.651Z,1108
2016-12-14T08:34:32.151Z,1020
2016-12-14T08:35:12.634Z,1024
2016-12-14T08:35:53.245Z,1068
2016-12-14T08:36:33.731Z,1096
2016-12-14T08:37:14.226Z,1096
2016-12-14T08:37:55.292Z,1164
2016-12-14T08:38:35.777Z,1144
2016-12-14T08:39:16.274Z,1184
2016-12-14T08:39:56.796Z,1212
2016-12-14T08:40:37.309Z,1240
2016-12-14T08:43:06.841Z,1276
2016-12-14T08:43:47.255Z,1308
2016-12-14T08:44:27.701Z,1352
2016-12-14T08:45:08.198Z,1340
2016-12-14T08:45:48.697Z,1352
2016-12-14T08:46:29.188Z,1344
2016-12-14T08:47:09.835Z,1332
2016-12-14T08:47:50.390Z,1404
2016-12-14T08:48:30.936Z,1400
2016-12-14T08:49:11.497Z,1412
2016-12-14T08:49:51.986Z,1448
2016-12-14T08:50:32.493Z,1484
2016-12-14T08:51:12.975Z,1524
2016-12-14T08:51:53.473Z,1608
2016-12-14T08:52:34.013Z,1608
2016-12-14T08:53:15.428Z,1652
2016-12-14T08:53:57.628Z,1636
2016-12-14T08:54:38.123Z,1696
2016-12-14T08:55:19.594Z,1752
2016-12-14T08:56:00.086Z,1812
2016-12-14T08:56:40.568Z,1864
2016-12-14T08:57:21.073Z,1888
2016-12-14T08:58:01.552Z,1928
2016-12-14T08:58:42.055Z,1916
2016-12-14T08:59:22.536Z,1916
2016-12-14T09:00:03.022Z,1968
2016-12-14T09:00:43.566Z,1972
2016-12-14T09:01:24.051Z,1960
2016-12-14T09:02:04.497Z,1960
2016-12-14T09:02:44.995Z,1912
2016-12-14T09:03:25.487Z,1924
2016-12-14T09:04:06.728Z,1892
2016-12-14T09:04:48.450Z,1916
2016-12-14T09:05:29.627Z,1960
2016-12-14T09:06:10.107Z,2048
2016-12-14T09:06:50.606Z,2104
2016-12-14T09:07:31.136Z,2156
2016-12-14T09:08:11.757Z,2192
2016-12-14T09:08:52.245Z,2224
2016-12-14T09:09:33.261Z,2228
2016-12-14T09:10:13.996Z,2284
2016-12-14T09:10:54.607Z,2300
2016-12-14T09:11:35.217Z,2304
2016-12-14T09:12:15.765Z,2360
2016-12-14T09:12:56.441Z,2340
2016-12-14T09:13:37.106Z,2336
2016-12-14T09:14:17.776Z,2288
2016-12-14T09:14:58.433Z,2232
2016-12-14T09:15:38.922Z,2224
2016-12-14T09:16:19.430Z,2244
2016-12-14T09:16:59.911Z,2300
2016-12-14T09:17:40.444Z,2360
2016-12-14T09:18:21.057Z,2260
2016-12-14T09:19:02.553Z,2280
2016-12-14T09:19:43.099Z,2280
2016-12-14T09:20:24.060Z,2300
2016-12-14T09:21:04.660Z,2256
2016-12-14T09:21:45.270Z,2180
2016-12-14T09:22:25.764Z,2164
2016-12-14T09:23:06.434Z,2108
2016-12-14T09:23:46.907Z,2008
2016-12-14T09:24:27.551Z,1868
2016-12-14T09:25:08.058Z,1764
2016-12-14T09:25:48.523Z,1660
2016-12-14T09:26:29.063Z,1688
2016-12-14T09:27:09.549Z,1676
2016-12-14T09:27:50.035Z,1628
2016-12-14T09:28:30.494Z,1584
2016-12-14T09:29:11.003Z,1464
2016-12-14T09:29:52.314Z,1344
2016-12-14T09:30:32.970Z,1180
2016-12-14T09:31:13.447Z,1104
2016-12-14T09:31:53.942Z,1136
2016-12-14T09:32:34.409Z,1124
2016-12-14T09:33:14.994Z,1176
2016-12-14T09:33:55.450Z,1312
2016-12-14T09:34:35.958Z,1404
2016-12-14T09:35:16.436Z,1508
2016-12-14T09:35:56.981Z,1492
2016-12-14T09:36:37.475Z,1644
2016-12-14T09:37:17.973Z,1660
2016-12-14T09:37:59.212Z,1636
2016-12-14T09:38:41.059Z,1452
2016-12-14T09:39:23.090Z,1468
2016-12-14T09:40:03.531Z,1512
2016-12-14T09:40:44.012Z,1828
2016-12-14T09:41:24.515Z,2004
2016-12-14T09:42:05.014Z,1888
2016-12-14T09:42:45.535Z,1788
2016-12-14T09:43:26.027Z,1964
2016-12-14T09:44:06.523Z,1856
2016-12-14T09:44:47.002Z,1924
2016-12-14T09:45:27.484Z,2084
2016-12-14T09:46:07.986Z,2096
2016-12-14T09:46:48.457Z,2296
2016-12-14T09:47:28.978Z,2336
2016-12-14T09:48:09.432Z,2412
2016-12-14T09:48:49.893Z,2296
2016-12-14T09:49:30.387Z,2332
2016-12-14T09:50:10.886Z,2348
2016-12-14T09:50:51.346Z,2300
2016-12-14T09:51:31.887Z,2256
2016-12-14T09:52:12.339Z,2360
2016-12-14T09:52:52.841Z,2468
2016-12-14T09:53:33.331Z,2520
2016-12-14T09:54:13.851Z,2500
2016-12-14T09:54:54.358Z,2468
2016-12-14T09:55:34.865Z,2424